Time;durP1;ratioP1;P1;durP2;ratioP2;P2;SDS_P1;SDS_P2;PMS_P1;PMS_P2;Temp;Humidity;BMP_temperature;BMP_pressure;BME280_temperature;BME280_humidity;BME280_pressure;Samples;Min_cycle;Max_cycle;Signal;HPM_P1;HPM_P2
2023/10/18 00:01:15;;;;;;;3.38;1.08;;;;;;;;;;6214344;23;20013;-79
2023/10/18 00:25:21;;;;;;;5.60;1.70;;;;;;;;;;6123724;23;20483;-80
2023/10/18 00:36:18;;;;;;;4.80;1.40;;;;;;;;;;6094289;23;20357;-79
2023/10/18 00:57:48;;;;;;;6.85;1.70;;;;;;;;;;6214702;22;20020;31
2023/10/18 01:17:45;;;;;;;3.08;1.33;;;;;;;;;;6254994;23;20020;-79
2023/10/18 01:21:51;;;;;;;7.97;1.77;;;;;;;;;;6184012;23;20049;-79
2023/10/18 02:12:41;;;;;;;8.68;1.67;;;;;;;;;;6224642;23;20012;-79
2023/10/18 02:20:26;;;;;;;8.68;1.65;;;;;;;;;;6069120;23;20014;-79
2023/10/18 02:23:48;;;;;;;9.40;1.70;;;;;;;;;;6090032;23;20027;-81
2023/10/18 02:31:40;;;;;;;8.30;1.63;;;;;;;;;;5872636;24;20478;-80
2023/10/18 02:34:51;;;;;;;5.45;1.63;;;;;;;;;;5813957;24;20031;-79
2023/10/18 02:37:24;;;;;;;6.65;1.80;;;;;;;;;;5931577;24;20025;-80
2023/10/18 02:40:29;;;;;;;7.50;1.95;;;;;;;;;;5954251;24;20020;-80
2023/10/18 02:43:21;;;;;;;6.25;1.77;;;;;;;;;;5952098;24;20080;-80
2023/10/18 02:45:51;;;;;;;10.77;2.63;;;;;;;;;;5952547;24;20488;-80
2023/10/18 02:48:24;;;;;;;7.05;2.40;;;;;;;;;;5993701;23;20447;-81
2023/10/18 02:50:57;;;;;;;4.72;2.13;;;;;;;;;;6013049;23;20020;-81
2023/10/18 02:53:28;;;;;;;6.75;2.22;;;;;;;;;;5985983;23;20019;-79
2023/10/18 02:55:58;;;;;;;4.38;1.65;;;;;;;;;;6009678;23;20463;-79
2023/10/18 02:58:28;;;;;;;5.63;2.10;;;;;;;;;;6009672;23;20024;-80
2023/10/18 03:01:05;;;;;;;3.72;2.17;;;;;;;;;;5985623;23;20031;-80
2023/10/18 03:03:39;;;;;;;6.80;2.50;;;;;;;;;;6072810;23;20013;-80
2023/10/18 03:06:13;;;;;;;5.78;2.03;;;;;;;;;;6193278;23;20040;-80
2023/10/18 03:08:48;;;;;;;7.75;2.22;;;;;;;;;;6188119;23;20017;-81
2023/10/18 03:11:20;;;;;;;5.65;2.40;;;;;;;;;;6157561;23;20045;-79
2023/10/18 03:13:51;;;;;;;10.73;2.78;;;;;;;;;;6202487;23;20478;-80
2023/10/18 03:16:39;;;;;;;10.40;2.42;;;;;;;;;;6213485;23;20024;-79
2023/10/18 03:19:12;;;;;;;5.75;2.20;;;;;;;;;;6213098;23;20013;-81
2023/10/18 03:21:47;;;;;;;5.40;2.72;;;;;;;;;;6214126;23;20017;-81
2023/10/18 03:24:22;;;;;;;6.60;2.67;;;;;;;;;;6225947;23;20020;-79
2023/10/18 03:26:53;;;;;;;7.93;2.90;;;;;;;;;;6226212;23;20328;-81
2023/10/18 03:29:26;;;;;;;8.02;2.83;;;;;;;;;;6224846;23;20013;-81
2023/10/18 03:31:57;;;;;;;11.10;3.67;;;;;;;;;;6225657;23;20009;-81
2023/10/18 03:34:29;;;;;;;7.60;3.60;;;;;;;;;;6214933;23;20012;-80
2023/10/18 03:37:00;;;;;;;7.90;2.90;;;;;;;;;;6213023;23;20050;-80
2023/10/18 03:39:31;;;;;;;11.32;4.38;;;;;;;;;;6213426;23;20020;-81
2023/10/18 03:42:03;;;;;;;10.55;3.22;;;;;;;;;;6214049;23;20020;-80
2023/10/18 03:44:34;;;;;;;7.75;3.30;;;;;;;;;;6213434;23;20017;-80
2023/10/18 03:47:11;;;;;;;8.30;4.20;;;;;;;;;;6225251;23;20382;-80
2023/10/18 03:49:44;;;;;;;9.48;4.03;;;;;;;;;;6225994;23;20020;-80
2023/10/18 03:55:04;;;;;;;13.48;3.97;;;;;;;;;;6214150;23;20414;-80
2023/10/18 03:57:41;;;;;;;13.40;3.83;;;;;;;;;;6215395;23;20459;-80
2023/10/18 04:03:07;;;;;;;9.70;4.68;;;;;;;;;;6225541;23;20013;-80
2023/10/18 04:08:17;;;;;;;10.65;4.95;;;;;;;;;;6225858;23;20012;-79
2023/10/18 04:11:02;;;;;;;12.73;4.80;;;;;;;;;;6225432;23;20013;-78
2023/10/18 04:13:32;;;;;;;12.00;5.18;;;;;;;;;;6223614;23;20009;-78
2023/10/18 04:16:11;;;;;;;11.57;5.75;;;;;;;;;;6215156;23;20017;-78
2023/10/18 04:18:41;;;;;;;11.30;4.93;;;;;;;;;;6225474;23;20012;-79
2023/10/18 04:21:16;;;;;;;15.45;5.32;;;;;;;;;;6214467;23;20016;-80
2023/10/18 04:23:46;;;;;;;12.00;4.53;;;;;;;;;;6225220;23;20020;-80
2023/10/18 04:26:20;;;;;;;12.23;5.28;;;;;;;;;;6215240;23;20019;-79
2023/10/18 04:28:54;;;;;;;11.77;4.80;;;;;;;;;;6226582;23;20012;-79
2023/10/18 04:31:25;;;;;;;10.55;4.50;;;;;;;;;;6234137;23;20017;-79
2023/10/18 04:33:57;;;;;;;16.15;4.80;;;;;;;;;;6236321;23;20012;-80
2023/10/18 04:36:30;;;;;;;13.55;4.20;;;;;;;;;;6233521;23;20454;-80
2023/10/18 04:39:07;;;;;;;15.80;4.53;;;;;;;;;;6224436;23;20023;-79
2023/10/18 04:41:38;;;;;;;17.17;4.65;;;;;;;;;;6226458;23;20470;-79
2023/10/18 04:44:18;;;;;;;10.95;4.70;;;;;;;;;;6212753;23;20013;-80
2023/10/18 04:46:52;;;;;;;12.43;4.60;;;;;;;;;;6225230;23;20013;-79
2023/10/18 04:49:36;;;;;;;11.75;5.00;;;;;;;;;;6212511;23;20069;-79
2023/10/18 04:52:16;;;;;;;18.63;5.07;;;;;;;;;;6225916;23;20012;-79
2023/10/18 04:54:59;;;;;;;9.27;4.65;;;;;;;;;;6215114;23;20036;-80
2023/10/18 04:57:31;;;;;;;8.85;4.63;;;;;;;;;;6227025;23;20340;-80
2023/10/18 05:00:11;;;;;;;11.07;5.03;;;;;;;;;;6227186;23;20008;-79
2023/10/18 05:02:45;;;;;;;9.40;4.22;;;;;;;;;;6227158;23;20013;-79
2023/10/18 05:05:17;;;;;;;11.48;4.78;;;;;;;;;;6219854;23;20012;-80
2023/10/18 05:07:53;;;;;;;9.82;4.57;;;;;;;;;;6226755;23;20024;-81
2023/10/18 05:10:28;;;;;;;13.85;5.40;;;;;;;;;;6226739;23;20032;-79
2023/10/18 05:13:04;;;;;;;11.35;4.45;;;;;;;;;;6227196;23;20017;-80
2023/10/18 05:15:36;;;;;;;14.52;4.50;;;;;;;;;;6215504;23;20023;-79
2023/10/18 05:18:16;;;;;;;11.45;4.75;;;;;;;;;;6226540;23;20020;-81
2023/10/18 05:20:55;;;;;;;13.93;5.93;;;;;;;;;;6225304;23;20019;-79
2023/10/18 05:23:26;;;;;;;18.63;5.75;;;;;;;;;;6227205;23;20019;-79
2023/10/18 05:26:08;;;;;;;16.58;6.45;;;;;;;;;;6214792;23;20020;-80
2023/10/18 05:28:49;;;;;;;25.27;7.88;;;;;;;;;;6227191;23;20009;-79
2023/10/18 05:34:12;;;;;;;33.35;9.55;;;;;;;;;;6227175;23;20013;-79
2023/10/18 05:42:03;;;;;;;27.00;9.65;;;;;;;;;;6227635;23;20015;-79
2023/10/18 05:44:33;;;;;;;33.88;10.02;;;;;;;;;;6215199;23;20032;-80
2023/10/18 05:47:06;;;;;;;35.67;10.65;;;;;;;;;;6216659;23;20016;-81
2023/10/18 05:49:41;;;;;;;35.95;10.10;;;;;;;;;;6226685;23;20020;-81
2023/10/18 05:54:45;;;;;;;34.75;11.38;;;;;;;;;;6216237;23;20340;-80
2023/10/18 05:57:16;;;;;;;31.08;9.60;;;;;;;;;;6226411;23;20016;-81
2023/10/18 05:59:48;;;;;;;34.15;10.38;;;;;;;;;;6215074;23;20012;-81
2023/10/18 06:02:25;;;;;;;26.23;8.82;;;;;;;;;;6226029;23;20008;-80
2023/10/18 06:04:56;;;;;;;26.80;9.02;;;;;;;;;;6189566;23;20029;-83
2023/10/18 06:07:26;;;;;;;21.05;7.80;;;;;;;;;;6216531;23;20016;-82
2023/10/18 06:09:58;;;;;;;22.40;8.68;;;;;;;;;;6227082;23;20399;-82
2023/10/18 06:12:38;;;;;;;24.08;8.50;;;;;;;;;;6216446;23;20016;-81
2023/10/18 06:15:11;;;;;;;25.25;9.77;;;;;;;;;;6213709;23;20013;-79
2023/10/18 06:25:50;;;;;;;33.97;10.77;;;;;;;;;;6216184;23;20027;-81
2023/10/18 06:28:21;;;;;;;33.10;9.73;;;;;;;;;;6227105;23;20013;-81
2023/10/18 06:30:52;;;;;;;35.08;11.18;;;;;;;;;;6216524;23;20013;-80
2023/10/18 06:33:23;;;;;;;36.20;11.80;;;;;;;;;;6226020;23;20016;-82
2023/10/18 06:35:53;;;;;;;37.35;11.40;;;;;;;;;;6213198;23;20012;-80
2023/10/18 06:38:25;;;;;;;43.58;11.60;;;;;;;;;;6213862;23;20023;-80
2023/10/18 06:43:36;;;;;;;38.90;10.25;;;;;;;;;;6226827;23;20012;-81
2023/10/18 06:46:08;;;;;;;49.38;11.50;;;;;;;;;;6225555;23;20439;-81
2023/10/18 06:48:39;;;;;;;40.88;10.05;;;;;;;;;;6226428;23;20020;-79
2023/10/18 06:51:17;;;;;;;55.42;10.85;;;;;;;;;;6226009;23;20009;-79
2023/10/18 06:53:47;;;;;;;69.00;11.95;;;;;;;;;;6226093;23;20013;-82
2023/10/18 06:56:20;;;;;;;71.50;11.38;;;;;;;;;;6215697;23;20021;-80
2023/10/18 06:58:51;;;;;;;64.45;10.63;;;;;;;;;;6226239;23;20019;-80
2023/10/18 07:01:30;;;;;;;88.78;11.57;;;;;;;;;;6215497;23;20016;-80
2023/10/18 07:04:01;;;;;;;73.47;11.82;;;;;;;;;;6224094;23;21178;-80
2023/10/18 07:06:35;;;;;;;53.85;11.95;;;;;;;;;;6214682;23;20021;-80
2023/10/18 07:09:24;;;;;;;45.15;11.27;;;;;;;;;;6225641;23;20020;-79
2023/10/18 07:12:03;;;;;;;51.35;11.48;;;;;;;;;;6225939;23;20013;-79
2023/10/18 07:14:35;;;;;;;49.28;11.68;;;;;;;;;;6225705;23;20009;-79
2023/10/18 07:17:09;;;;;;;55.28;12.82;;;;;;;;;;6215937;23;20463;-79
2023/10/18 07:19:49;;;;;;;47.00;12.50;;;;;;;;;;6213527;23;20031;-80
2023/10/18 07:22:19;;;;;;;44.65;10.70;;;;;;;;;;6226307;23;20009;-80
2023/10/18 07:24:59;;;;;;;27.48;7.32;;;;;;;;;;6215782;23;20020;-82
2023/10/18 07:27:32;;;;;;;25.15;8.60;;;;;;;;;;6225357;23;20012;-81
2023/10/18 07:30:13;;;;;;;20.77;7.72;;;;;;;;;;6226060;23;20008;-80
2023/10/18 07:32:47;;;;;;;20.73;6.47;;;;;;;;;;6226465;23;20072;-80
2023/10/18 07:35:30;;;;;;;14.18;6.28;;;;;;;;;;6225453;23;20016;-80
2023/10/18 07:38:00;;;;;;;15.77;5.82;;;;;;;;;;6225569;23;20013;-80
2023/10/18 07:40:33;;;;;;;13.43;6.32;;;;;;;;;;6214185;23;20020;-80
2023/10/18 07:43:07;;;;;;;14.52;5.97;;;;;;;;;;6226358;23;20015;-79
2023/10/18 07:45:39;;;;;;;13.52;5.40;;;;;;;;;;6225960;23;20439;-80
2023/10/18 07:48:11;;;;;;;13.45;6.07;;;;;;;;;;6225332;23;20448;-81
2023/10/18 07:53:14;;;;;;;9.88;5.07;;;;;;;;;;6215829;23;19964;-81
2023/10/18 07:55:48;;;;;;;13.73;4.82;;;;;;;;;;6225503;23;20009;-83
2023/10/18 07:58:21;;;;;;;10.20;5.05;;;;;;;;;;6214838;23;20363;-80
2023/10/18 08:03:32;;;;;;;9.00;4.65;;;;;;;;;;6225733;23;20016;-80
2023/10/18 08:06:15;;;;;;;10.13;3.83;;;;;;;;;;6216051;23;20017;-81
2023/10/18 08:08:46;;;;;;;8.45;5.15;;;;;;;;;;6226166;23;20327;-80
2023/10/18 08:11:17;;;;;;;9.05;4.95;;;;;;;;;;6225380;23;20252;-79
2023/10/18 08:13:47;;;;;;;10.38;4.32;;;;;;;;;;6214642;23;20016;-79
2023/10/18 08:16:20;;;;;;;9.60;4.43;;;;;;;;;;6215252;23;20021;-80
2023/10/18 08:18:53;;;;;;;10.65;5.10;;;;;;;;;;6215776;23;20055;-79
2023/10/18 08:21:28;;;;;;;10.57;5.03;;;;;;;;;;6225085;23;20009;-80
2023/10/18 08:24:07;;;;;;;11.77;6.72;;;;;;;;;;6225589;23;20008;-79
2023/10/18 08:26:46;;;;;;;14.88;7.15;;;;;;;;;;6226292;23;20039;-77
2023/10/18 08:29:17;;;;;;;13.55;7.07;;;;;;;;;;6228227;23;20016;-80
2023/10/18 08:31:55;;;;;;;16.05;7.65;;;;;;;;;;6217265;23;20009;-80
2023/10/18 08:34:26;;;;;;;12.40;6.20;;;;;;;;;;6227142;23;20016;-80
2023/10/18 08:37:03;;;;;;;15.88;6.32;;;;;;;;;;6215971;23;20016;-82
2023/10/18 08:39:39;;;;;;;18.67;6.80;;;;;;;;;;6227716;23;20017;-80
2023/10/18 08:42:15;;;;;;;16.92;6.95;;;;;;;;;;6227430;23;20020;-81
2023/10/18 08:44:46;;;;;;;10.30;5.10;;;;;;;;;;6226720;23;20009;-80
2023/10/18 08:47:18;;;;;;;10.32;5.72;;;;;;;;;;6227588;23;20031;-80
2023/10/18 08:49:50;;;;;;;11.75;5.90;;;;;;;;;;6227769;23;20020;-80
2023/10/18 08:52:24;;;;;;;11.23;6.43;;;;;;;;;;6227858;23;20467;-82
2023/10/18 08:55:19;;;;;;;12.18;6.20;;;;;;;;;;6227429;23;20013;-79
2023/10/18 08:57:56;;;;;;;13.13;6.20;;;;;;;;;;6216901;23;20008;-79
2023/10/18 09:02:58;;;;;;;13.05;6.00;;;;;;;;;;6216187;23;20013;-80
2023/10/18 09:05:31;;;;;;;10.93;6.20;;;;;;;;;;6189735;23;20339;-79
2023/10/18 09:08:03;;;;;;;12.73;6.07;;;;;;;;;;6226698;23;20019;-80
2023/10/18 09:18:34;;;;;;;11.65;6.40;;;;;;;;;;6227138;23;20435;-81
2023/10/18 09:21:09;;;;;;;11.30;5.75;;;;;;;;;;6227048;23;20016;-83
2023/10/18 09:23:43;;;;;;;12.95;5.75;;;;;;;;;;6226663;23;20012;-80
2023/10/18 09:26:19;;;;;;;10.88;6.22;;;;;;;;;;6226407;23;20482;-81
2023/10/18 09:28:50;;;;;;;11.30;6.57;;;;;;;;;;6227485;23;20009;-79
2023/10/18 09:31:20;;;;;;;14.00;6.30;;;;;;;;;;6216881;23;20017;-81
2023/10/18 09:33:56;;;;;;;13.43;6.55;;;;;;;;;;6226801;23;20008;-80
2023/10/18 09:36:27;;;;;;;13.73;6.80;;;;;;;;;;6227128;23;20008;-80
2023/10/18 09:38:59;;;;;;;13.82;6.38;;;;;;;;;;6215103;23;20332;-80
2023/10/18 09:41:31;;;;;;;11.85;6.80;;;;;;;;;;6216619;23;20024;-79
2023/10/18 09:44:01;;;;;;;11.77;5.95;;;;;;;;;;6233868;23;20009;-79
2023/10/18 09:46:33;;;;;;;16.13;6.32;;;;;;;;;;6228972;23;20009;-79
2023/10/18 09:49:09;;;;;;;12.25;6.68;;;;;;;;;;6238385;23;20013;-79
2023/10/18 09:51:44;;;;;;;13.10;6.95;;;;;;;;;;6228029;23;20016;-80
2023/10/18 09:54:21;;;;;;;14.05;7.32;;;;;;;;;;6227915;23;20009;-79
2023/10/18 09:56:57;;;;;;;13.55;6.28;;;;;;;;;;6235095;23;20301;-83
2023/10/18 09:59:37;;;;;;;11.45;5.93;;;;;;;;;;6226575;23;20009;-81
2023/10/18 10:02:15;;;;;;;10.85;5.90;;;;;;;;;;6225172;23;20019;-81
2023/10/18 10:04:55;;;;;;;10.73;6.05;;;;;;;;;;6220532;23;20313;-81
2023/10/18 10:07:41;;;;;;;13.18;6.88;;;;;;;;;;6224396;23;20019;-81
2023/10/18 10:10:19;;;;;;;16.67;6.53;;;;;;;;;;6223852;23;20016;-78
2023/10/18 10:12:57;;;;;;;12.25;6.25;;;;;;;;;;6224994;23;20012;-78
2023/10/18 10:15:28;;;;;;;9.27;5.60;;;;;;;;;;6225877;23;20025;-79
2023/10/18 10:18:00;;;;;;;10.65;5.80;;;;;;;;;;6225795;23;20012;-79
2023/10/18 10:20:40;;;;;;;8.05;4.38;;;;;;;;;;6225386;23;20016;-79
2023/10/18 10:23:15;;;;;;;9.73;4.75;;;;;;;;;;6224416;23;20012;-79
2023/10/18 10:26:16;;;;;;;10.07;4.45;;;;;;;;;;6225672;23;20339;-81
2023/10/18 10:31:58;;;;;;;13.52;5.50;;;;;;;;;;6226382;23;19923;-79
2023/10/18 10:34:34;;;;;;;11.05;5.63;;;;;;;;;;6226225;23;20327;-81
2023/10/18 10:37:08;;;;;;;9.40;5.40;;;;;;;;;;6213145;23;20016;-79
2023/10/18 10:39:50;;;;;;;13.35;6.20;;;;;;;;;;6224878;23;20447;-79
2023/10/18 10:48:32;;;;;;;11.32;6.57;;;;;;;;;;6224663;23;20013;-80
2023/10/18 10:51:24;;;;;;;15.10;6.85;;;;;;;;;;6214112;23;20013;-78
2023/10/18 10:53:58;;;;;;;11.90;6.90;;;;;;;;;;6215120;23;20009;-79
2023/10/18 10:56:32;;;;;;;11.32;6.60;;;;;;;;;;6224841;23;20068;-80
2023/10/18 10:59:22;;;;;;;14.35;7.10;;;;;;;;;;6223248;23;20012;-81
2023/10/18 11:04:28;;;;;;;14.05;6.60;;;;;;;;;;6220590;23;20016;-80
2023/10/18 11:07:13;;;;;;;10.43;5.80;;;;;;;;;;6224502;23;20017;-80
2023/10/18 11:09:43;;;;;;;13.73;6.18;;;;;;;;;;6224689;23;20019;-80
2023/10/18 11:12:15;;;;;;;9.48;5.47;;;;;;;;;;6225041;23;20009;-80
2023/10/18 11:14:50;;;;;;;10.55;6.13;;;;;;;;;;6215155;23;20019;-80
2023/10/18 11:17:23;;;;;;;13.50;6.03;;;;;;;;;;6224815;23;20470;-81
2023/10/18 11:19:59;;;;;;;18.65;6.50;;;;;;;;;;6225113;23;20020;-80
2023/10/18 11:22:33;;;;;;;14.77;6.07;;;;;;;;;;6223882;23;20019;-81
2023/10/18 11:25:04;;;;;;;9.98;5.45;;;;;;;;;;6223249;23;20020;-80
2023/10/18 11:27:37;;;;;;;11.13;6.05;;;;;;;;;;6211716;23;20352;-78
2023/10/18 11:32:53;;;;;;;10.57;5.68;;;;;;;;;;6224149;23;20009;-82
2023/10/18 11:35:37;;;;;;;10.77;5.72;;;;;;;;;;6224084;23;20020;-81
2023/10/18 11:38:34;;;;;;;8.85;4.90;;;;;;;;;;6210952;23;20013;-82
2023/10/18 11:41:11;;;;;;;8.95;4.47;;;;;;;;;;6221127;23;20335;-82
2023/10/18 11:43:51;;;;;;;11.13;5.72;;;;;;;;;;6223808;23;20473;-83
2023/10/18 11:46:22;;;;;;;11.32;5.55;;;;;;;;;;6224004;23;20020;-80
2023/10/18 11:48:55;;;;;;;11.15;5.78;;;;;;;;;;6214427;23;20016;-79
2023/10/18 11:51:27;;;;;;;15.43;6.93;;;;;;;;;;6223657;23;20574;-81
2023/10/18 11:53:58;;;;;;;12.52;6.25;;;;;;;;;;6224025;23;20478;-81
2023/10/18 11:56:36;;;;;;;12.27;6.35;;;;;;;;;;6223824;23;20016;-82
2023/10/18 11:59:07;;;;;;;16.08;6.53;;;;;;;;;;6222454;23;20016;-82
2023/10/18 12:01:38;;;;;;;12.10;6.35;;;;;;;;;;6210534;23;20027;-81
2023/10/18 12:04:09;;;;;;;12.43;6.45;;;;;;;;;;6221820;23;20008;-83
2023/10/18 12:06:39;;;;;;;11.38;6.50;;;;;;;;;;6213956;23;20466;-81
2023/10/18 12:11:43;;;;;;;12.63;7.00;;;;;;;;;;6224302;23;20009;-80
2023/10/18 12:14:14;;;;;;;13.77;6.75;;;;;;;;;;6213803;23;20015;-83
2023/10/18 12:16:45;;;;;;;15.98;7.80;;;;;;;;;;6212134;23;20016;-81
2023/10/18 12:19:15;;;;;;;11.55;6.55;;;;;;;;;;6213761;23;20015;-80
2023/10/18 12:21:48;;;;;;;12.70;7.30;;;;;;;;;;6212119;23;20024;-80
2023/10/18 12:24:20;;;;;;;14.68;6.25;;;;;;;;;;6223925;23;20021;-80
2023/10/18 12:26:54;;;;;;;14.27;8.18;;;;;;;;;;6222564;23;20347;-80
2023/10/18 12:29:27;;;;;;;11.45;7.25;;;;;;;;;;6223825;23;20056;-81
2023/10/18 12:32:18;;;;;;;10.52;6.40;;;;;;;;;;6224032;23;20009;-81
2023/10/18 12:34:56;;;;;;;12.02;6.10;;;;;;;;;;6212597;23;20059;-81
2023/10/18 12:37:32;;;;;;;12.85;7.05;;;;;;;;;;6211978;23;20024;-81
2023/10/18 12:40:14;;;;;;;15.82;8.10;;;;;;;;;;6224320;23;20019;-80
2023/10/18 12:46:23;;;;;;;14.98;6.47;;;;;;;;;;6212389;23;20017;-81
2023/10/18 12:49:22;;;;;;;13.07;6.95;;;;;;;;;;6213996;23;20017;-80
2023/10/18 12:52:03;;;;;;;14.20;7.13;;;;;;;;;;6186792;23;20464;-79
2023/10/18 12:54:36;;;;;;;11.50;7.40;;;;;;;;;;6224622;23;20009;-81
2023/10/18 12:57:12;;;;;;;11.02;6.57;;;;;;;;;;6224119;23;20020;-80
2023/10/18 13:05:22;;;;;;;11.70;6.90;;;;;;;;;;6215138;23;20009;-79
2023/10/18 13:07:55;;;;;;;11.60;6.22;;;;;;;;;;6213821;23;20008;-80
2023/10/18 13:10:35;;;;;;;10.45;6.07;;;;;;;;;;6224681;23;20017;-80
2023/10/18 13:13:18;;;;;;;8.43;5.30;;;;;;;;;;6123971;23;20014;-79
2023/10/18 13:15:49;;;;;;;8.75;4.90;;;;;;;;;;6123691;23;20105;-79
2023/10/18 13:18:19;;;;;;;8.45;4.95;;;;;;;;;;6099300;23;20037;-79
2023/10/18 13:20:49;;;;;;;7.55;4.40;;;;;;;;;;6124170;23;20365;-81
2023/10/18 13:23:19;;;;;;;8.05;4.15;;;;;;;;;;6124666;23;20029;-80
2023/10/18 13:25:53;;;;;;;7.50;4.45;;;;;;;;;;6124460;23;20018;-81
2023/10/18 13:28:34;;;;;;;6.68;3.83;;;;;;;;;;6133699;23;20593;-82
2023/10/18 13:31:09;;;;;;;7.13;4.40;;;;;;;;;;6129409;23;20026;-81
2023/10/18 13:33:40;;;;;;;8.23;4.63;;;;;;;;;;6134445;23;20017;-81
2023/10/18 13:36:13;;;;;;;7.57;4.60;;;;;;;;;;6123309;23;20025;-81
2023/10/18 13:38:44;;;;;;;9.73;4.25;;;;;;;;;;6124411;23;20018;-79
2023/10/18 13:41:14;;;;;;;9.40;4.15;;;;;;;;;;6124038;23;20393;-81
2023/10/18 13:43:47;;;;;;;6.10;3.25;;;;;;;;;;6130860;23;20017;-81
2023/10/18 13:46:22;;;;;;;5.68;2.97;;;;;;;;;;6123764;23;20018;-80
2023/10/18 13:48:54;;;;;;;6.90;3.03;;;;;;;;;;6134073;23;20021;-80
2023/10/18 13:51:24;;;;;;;6.18;3.10;;;;;;;;;;6197792;23;20312;-78
2023/10/18 13:53:55;;;;;;;4.85;2.50;;;;;;;;;;6215506;23;20009;-79
2023/10/18 13:56:25;;;;;;;5.88;3.00;;;;;;;;;;6222918;23;20016;-78
2023/10/18 13:58:55;;;;;;;8.93;3.63;;;;;;;;;;6213253;23;20021;-78
2023/10/18 14:01:25;;;;;;;7.07;3.20;;;;;;;;;;6215716;23;20079;-79
2023/10/18 14:03:59;;;;;;;5.93;2.85;;;;;;;;;;6216881;23;20016;-79
2023/10/18 14:06:30;;;;;;;5.43;3.05;;;;;;;;;;6216268;23;20012;-81
2023/10/18 14:09:22;;;;;;;6.50;3.08;;;;;;;;;;6216114;23;20023;-82
2023/10/18 14:11:53;;;;;;;6.18;3.40;;;;;;;;;;6213423;23;20017;-82
2023/10/18 14:14:23;;;;;;;9.63;4.78;;;;;;;;;;6215754;23;20027;-82
2023/10/18 14:16:55;;;;;;;7.10;3.70;;;;;;;;;;6226571;23;20012;-84
2023/10/18 14:19:29;;;;;;;8.30;4.57;;;;;;;;;;6225326;23;20020;-82
2023/10/18 14:22:00;;;;;;;7.82;3.97;;;;;;;;;;6225559;23;20016;-81
2023/10/18 14:24:31;;;;;;;7.03;3.65;;;;;;;;;;6211934;23;20458;-80
2023/10/18 14:27:03;;;;;;;7.03;4.22;;;;;;;;;;6224463;23;20016;-80
2023/10/18 14:29:36;;;;;;;6.43;3.40;;;;;;;;;;6225021;23;20008;-84
2023/10/18 14:32:08;;;;;;;6.38;3.67;;;;;;;;;;6222486;23;20355;-82
2023/10/18 14:34:39;;;;;;;5.18;2.97;;;;;;;;;;6224221;23;20019;-84
2023/10/18 14:37:09;;;;;;;6.97;3.10;;;;;;;;;;6211443;23;20021;-83
2023/10/18 14:39:39;;;;;;;6.88;3.20;;;;;;;;;;6214315;23;20023;-82
2023/10/18 14:42:14;;;;;;;6.03;2.28;;;;;;;;;;6211911;23;20028;-84
2023/10/18 14:44:44;;;;;;;7.10;3.40;;;;;;;;;;6213972;23;20024;-82
2023/10/18 14:47:17;;;;;;;5.80;2.30;;;;;;;;;;6211050;23;20020;-81
2023/10/18 14:49:51;;;;;;;6.30;3.10;;;;;;;;;;6187699;23;20375;-85
2023/10/18 14:52:30;;;;;;;7.97;3.55;;;;;;;;;;6212752;23;20027;-81
2023/10/18 14:55:03;;;;;;;6.43;3.75;;;;;;;;;;6214002;23;20474;-82
2023/10/18 14:57:35;;;;;;;5.65;2.95;;;;;;;;;;6225245;23;20012;-82
2023/10/18 15:00:35;;;;;;;7.03;3.42;;;;;;;;;;6225428;23;20024;-80
2023/10/18 15:03:10;;;;;;;10.10;3.67;;;;;;;;;;6230983;23;20013;-79
2023/10/18 15:05:40;;;;;;;6.72;3.50;;;;;;;;;;6227696;23;20012;-79
2023/10/18 15:08:12;;;;;;;5.10;3.17;;;;;;;;;;6225479;23;20005;-81
2023/10/18 15:10:52;;;;;;;7.15;5.10;;;;;;;;;;6250401;23;20016;-80
2023/10/18 15:13:22;;;;;;;5.95;3.55;;;;;;;;;;6237668;23;20006;-79
2023/10/18 15:15:55;;;;;;;6.05;3.42;;;;;;;;;;6237669;23;20027;-79
2023/10/18 15:22:43;;;;;;;7.68;5.00;;;;;;;;;;6035730;23;20022;-79
2023/10/18 15:25:35;;;;;;;6.75;3.40;;;;;;;;;;5900798;24;20017;-78
2023/10/18 15:28:51;;;;;;;8.48;3.42;;;;;;;;;;5932657;24;20029;-80
2023/10/18 15:31:25;;;;;;;7.20;3.63;;;;;;;;;;5924088;24;20017;-80
2023/10/18 15:34:45;;;;;;;12.07;3.78;;;;;;;;;;5947007;24;20025;-79
2023/10/18 15:41:09;;;;;;;7.47;3.67;;;;;;;;;;6064700;23;20018;-78
2023/10/18 15:43:43;;;;;;;8.63;4.40;;;;;;;;;;6044023;23;20476;-78
2023/10/18 15:46:14;;;;;;;7.75;4.50;;;;;;;;;;6040972;23;20382;-79
2023/10/18 15:48:50;;;;;;;9.80;4.25;;;;;;;;;;6039243;23;20018;-80
2023/10/18 15:51:22;;;;;;;6.82;4.15;;;;;;;;;;6064648;23;20038;-79
2023/10/18 15:53:55;;;;;;;6.57;4.13;;;;;;;;;;6017674;23;20022;-79
2023/10/18 15:56:58;;;;;;;9.35;4.32;;;;;;;;;;6020834;23;20019;-81
2023/10/18 15:59:31;;;;;;;10.73;4.80;;;;;;;;;;6076804;23;20018;-79
2023/10/18 16:02:11;;;;;;;8.13;4.90;;;;;;;;;;6146575;23;20017;-79
2023/10/18 16:04:45;;;;;;;7.78;4.05;;;;;;;;;;6186411;23;20021;-79
2023/10/18 16:07:21;;;;;;;9.15;4.60;;;;;;;;;;6222762;23;20024;-80
2023/10/18 16:09:57;;;;;;;9.85;4.57;;;;;;;;;;6186682;23;20569;-79
2023/10/18 16:12:27;;;;;;;9.63;5.60;;;;;;;;;;6215682;23;20012;-81
2023/10/18 16:14:58;;;;;;;7.97;5.05;;;;;;;;;;6213023;23;20023;-79
2023/10/18 16:17:31;;;;;;;10.18;4.35;;;;;;;;;;6224400;23;20016;-81
2023/10/18 16:20:02;;;;;;;9.95;4.78;;;;;;;;;;6224460;23;20431;-79
2023/10/18 16:22:32;;;;;;;8.77;4.93;;;;;;;;;;6214184;23;20016;-79
2023/10/18 16:25:02;;;;;;;8.77;4.65;;;;;;;;;;6214479;23;20024;-81
2023/10/18 16:27:34;;;;;;;7.65;4.40;;;;;;;;;;6214419;23;20017;-80
2023/10/18 16:30:11;;;;;;;9.15;4.78;;;;;;;;;;6224085;23;20016;-80
2023/10/18 16:32:41;;;;;;;13.35;4.20;;;;;;;;;;6224186;23;20009;-79
2023/10/18 16:35:16;;;;;;;9.02;4.70;;;;;;;;;;6214585;23;20013;-79
2023/10/18 16:37:46;;;;;;;8.85;4.63;;;;;;;;;;6212385;23;20017;-79
2023/10/18 16:40:18;;;;;;;9.35;4.65;;;;;;;;;;6214901;23;20013;-79
2023/10/18 16:42:48;;;;;;;8.85;5.13;;;;;;;;;;6225048;23;20012;-79
2023/10/18 16:45:19;;;;;;;8.20;4.13;;;;;;;;;;6214540;23;20013;-80
2023/10/18 16:47:50;;;;;;;10.90;5.25;;;;;;;;;;6224598;23;20391;-80
2023/10/18 16:50:23;;;;;;;8.63;5.22;;;;;;;;;;6216317;23;20017;-79
2023/10/18 16:52:54;;;;;;;12.48;6.68;;;;;;;;;;6225252;23;20008;-79
2023/10/18 16:55:25;;;;;;;13.32;6.75;;;;;;;;;;6226291;23;20009;-81
2023/10/18 16:57:55;;;;;;;12.68;6.57;;;;;;;;;;6216622;23;20009;-79
2023/10/18 17:00:25;;;;;;;9.18;5.78;;;;;;;;;;6216355;23;20325;-79
2023/10/18 17:02:55;;;;;;;11.65;6.68;;;;;;;;;;6215850;23;20435;-79
2023/10/18 17:05:27;;;;;;;9.60;5.82;;;;;;;;;;6214148;23;20024;-80
2023/10/18 17:07:59;;;;;;;10.23;5.80;;;;;;;;;;6226852;23;20009;-81
2023/10/18 17:10:30;;;;;;;10.05;6.00;;;;;;;;;;6226585;23;20008;-82
2023/10/18 17:13:03;;;;;;;8.75;5.55;;;;;;;;;;6213858;23;20016;-79
2023/10/18 17:15:44;;;;;;;10.15;6.07;;;;;;;;;;6226530;23;20100;-79
2023/10/18 17:18:16;;;;;;;9.05;4.78;;;;;;;;;;6216526;23;20008;-81
2023/10/18 17:20:47;;;;;;;8.68;4.43;;;;;;;;;;6213619;23;20012;-80
2023/10/18 17:23:38;;;;;;;10.55;5.30;;;;;;;;;;6216307;23;20475;-79
2023/10/18 17:26:08;;;;;;;6.72;3.97;;;;;;;;;;6226409;23;20019;-80
2023/10/18 17:28:39;;;;;;;6.60;3.70;;;;;;;;;;6216325;23;20451;-80
2023/10/18 17:31:10;;;;;;;7.07;4.32;;;;;;;;;;6214211;23;20039;-80
2023/10/18 17:33:40;;;;;;;6.45;3.67;;;;;;;;;;6225886;23;20019;-79
2023/10/18 17:36:11;;;;;;;5.47;2.83;;;;;;;;;;6225179;23;20032;-79
2023/10/18 17:38:41;;;;;;;8.50;3.75;;;;;;;;;;6216042;23;20013;-79
2023/10/18 17:41:11;;;;;;;7.55;3.75;;;;;;;;;;6215872;23;20032;-81
2023/10/18 17:51:11;;;;;;;6.43;2.97;;;;;;;;;;6207433;23;20027;-81
2023/10/18 17:57:40;;;;;;;7.13;3.67;;;;;;;;;;6225956;23;20051;-81
2023/10/18 18:03:12;;;;;;;6.78;3.53;;;;;;;;;;6203111;23;20020;-79
2023/10/18 18:05:44;;;;;;;7.22;4.15;;;;;;;;;;6217514;23;20008;-80
2023/10/18 18:08:17;;;;;;;6.05;3.65;;;;;;;;;;6214719;23;20013;-80
2023/10/18 18:10:51;;;;;;;7.10;3.90;;;;;;;;;;6213385;23;20024;-81
2023/10/18 18:13:24;;;;;;;7.90;3.75;;;;;;;;;;6215353;23;20020;-81
2023/10/18 18:16:14;;;;;;;8.95;4.28;;;;;;;;;;6225892;23;20019;-79
2023/10/18 18:19:12;;;;;;;5.88;3.30;;;;;;;;;;6214428;23;20008;-80
2023/10/18 18:26:12;;;;;;;7.22;3.90;;;;;;;;;;6180309;23;20024;-81
2023/10/18 18:28:44;;;;;;;7.10;3.72;;;;;;;;;;6226296;23;20019;-83
2023/10/18 18:31:14;;;;;;;9.73;4.60;;;;;;;;;;6216618;23;20017;-81
2023/10/18 18:33:46;;;;;;;10.07;4.10;;;;;;;;;;6225672;23;20009;-82
2023/10/18 18:36:17;;;;;;;6.05;3.45;;;;;;;;;;6225600;23;20012;-83
2023/10/18 18:38:47;;;;;;;15.52;4.47;;;;;;;;;;6215005;23;20321;-84
2023/10/18 18:41:17;;;;;;;8.93;4.45;;;;;;;;;;6215503;23;20016;-82
2023/10/18 18:43:49;;;;;;;8.93;4.25;;;;;;;;;;6225583;23;20335;-83
2023/10/18 18:46:20;;;;;;;8.95;4.95;;;;;;;;;;6215067;23;20008;-82
2023/10/18 18:49:06;;;;;;;13.45;6.70;;;;;;;;;;6224663;23;20020;-83
2023/10/18 18:51:37;;;;;;;13.10;6.65;;;;;;;;;;6225301;23;20024;-84
2023/10/18 18:54:08;;;;;;;11.90;6.50;;;;;;;;;;6213484;23;20020;-85
2023/10/18 18:56:38;;;;;;;12.18;6.30;;;;;;;;;;6214929;23;20013;-83
2023/10/18 18:59:08;;;;;;;9.75;5.68;;;;;;;;;;6225118;23;20009;-82
2023/10/18 19:01:39;;;;;;;10.00;5.88;;;;;;;;;;6224838;23;20009;-82
2023/10/18 19:04:09;;;;;;;8.48;4.13;;;;;;;;;;6213213;23;20459;-81
2023/10/18 19:06:40;;;;;;;8.82;4.82;;;;;;;;;;6214939;23;20115;-81